createdAt,value
2022-12-28T00:00:14.151Z,0.50
2022-12-28T00:02:41.932Z,0.50
2022-12-28T00:05:09.856Z,0.60
2022-12-28T00:07:37.338Z,0.57
2022-12-28T00:10:08.060Z,0.47
2022-12-28T00:12:35.485Z,0.50
2022-12-28T00:15:02.924Z,0.70
2022-12-28T00:17:30.346Z,0.50
2022-12-28T00:19:59.266Z,0.50
2022-12-28T00:22:28.084Z,0.60
2022-12-28T00:24:55.607Z,0.60
2022-12-28T00:27:24.374Z,0.63
2022-12-28T00:29:51.864Z,0.60
2022-12-28T00:32:19.727Z,0.53
2022-12-28T00:34:47.192Z,0.57
2022-12-28T00:37:14.626Z,0.60
2022-12-28T00:39:42.953Z,0.50
2022-12-28T00:42:10.682Z,0.70
2022-12-28T00:44:39.497Z,0.70
2022-12-28T00:47:07.236Z,0.50
2022-12-28T00:49:34.720Z,0.60
2022-12-28T00:52:02.157Z,0.60
2022-12-28T00:54:30.000Z,0.50
2022-12-28T00:56:57.479Z,0.60
2022-12-28T00:59:24.937Z,0.77
2022-12-28T01:01:53.880Z,0.50
2022-12-28T01:04:22.819Z,0.60
2022-12-28T01:06:50.251Z,0.60
2022-12-28T01:09:17.711Z,0.70
2022-12-28T01:11:45.152Z,0.67
2022-12-28T01:14:12.573Z,0.60
2022-12-28T01:16:40.032Z,0.70
2022-12-28T01:19:12.480Z,0.60
2022-12-28T01:21:41.971Z,0.70
2022-12-28T01:24:10.440Z,0.70
2022-12-28T01:26:37.872Z,0.50
2022-12-28T01:29:05.324Z,0.50
2022-12-28T01:31:33.015Z,0.60
2022-12-28T01:34:00.870Z,0.60
2022-12-28T01:36:31.343Z,0.50
2022-12-28T01:38:59.700Z,0.60
2022-12-28T01:41:28.118Z,0.57
2022-12-28T01:44:13.870Z,0.60
2022-12-28T01:46:43.567Z,0.60
2022-12-28T01:49:13.187Z,0.60
2022-12-28T01:51:46.044Z,0.50
2022-12-28T01:54:13.544Z,0.67
2022-12-28T01:56:41.779Z,0.63
2022-12-28T01:59:10.531Z,0.53
2022-12-28T02:01:38.134Z,0.50
2022-12-28T02:04:05.676Z,0.63
2022-12-28T02:06:33.289Z,0.50
2022-12-28T02:09:04.925Z,0.70
2022-12-28T02:11:32.459Z,0.60
2022-12-28T02:14:01.050Z,0.70
2022-12-28T02:16:28.558Z,0.73
2022-12-28T02:18:56.209Z,0.50
2022-12-28T02:21:26.243Z,0.50
2022-12-28T02:23:59.032Z,0.50
2022-12-28T02:26:50.720Z,0.60
2022-12-28T02:29:38.646Z,0.63
2022-12-28T02:32:11.672Z,0.70
2022-12-28T02:34:42.599Z,0.50
2022-12-28T02:37:12.280Z,0.73
2022-12-28T02:39:42.612Z,0.60
2022-12-28T02:42:10.760Z,0.70
2022-12-28T02:44:57.516Z,0.60
2022-12-28T02:47:42.549Z,0.60
2022-12-28T02:50:12.501Z,0.70
2022-12-28T02:52:46.888Z,0.60
2022-12-28T02:55:35.757Z,0.70
2022-12-28T02:58:12.285Z,0.60
2022-12-28T03:00:50.210Z,0.57
2022-12-28T03:03:22.253Z,0.60
2022-12-28T03:06:17.498Z,0.60
2022-12-28T03:08:50.290Z,0.57
2022-12-28T03:11:18.821Z,0.67
2022-12-28T03:13:51.481Z,0.63
2022-12-28T03:16:23.094Z,0.50
2022-12-28T03:19:11.618Z,0.50
2022-12-28T03:21:59.555Z,0.60
2022-12-28T03:24:45.727Z,0.57
2022-12-28T03:27:35.536Z,0.60
2022-12-28T03:30:22.258Z,0.50
2022-12-28T03:32:51.705Z,0.50
2022-12-28T03:35:20.848Z,0.50
2022-12-28T03:37:52.407Z,0.53
2022-12-28T03:40:24.623Z,0.40
2022-12-28T03:43:13.322Z,0.50
2022-12-28T03:45:47.505Z,0.50
2022-12-28T03:48:18.785Z,0.50
2022-12-28T03:50:47.548Z,0.50
2022-12-28T03:53:17.302Z,0.50
2022-12-28T03:55:45.061Z,0.50
2022-12-28T03:58:14.505Z,0.60
2022-12-28T04:00:42.485Z,0.50
2022-12-28T04:03:11.880Z,0.60
2022-12-28T04:05:40.732Z,0.40
2022-12-28T04:08:08.453Z,0.50
2022-12-28T04:10:36.133Z,0.50
2022-12-28T04:13:03.633Z,0.50
2022-12-28T04:15:40.233Z,0.50
2022-12-28T04:18:08.389Z,0.50
2022-12-28T04:20:35.830Z,0.57
2022-12-28T04:23:04.684Z,0.60
2022-12-28T04:25:33.206Z,0.50
2022-12-28T04:28:01.031Z,0.47
2022-12-28T04:31:01.235Z,0.50
2022-12-28T04:33:32.870Z,0.60
2022-12-28T04:36:05.104Z,0.50
2022-12-28T04:38:33.943Z,0.70
2022-12-28T04:41:01.598Z,0.40
2022-12-28T04:43:30.521Z,0.50
2022-12-28T04:45:58.462Z,0.40
2022-12-28T04:48:26.149Z,0.40
2022-12-28T04:50:54.041Z,0.60
2022-12-28T04:53:21.715Z,0.40
2022-12-28T04:55:50.536Z,0.43
2022-12-28T04:58:18.112Z,0.40
2022-12-28T05:00:45.595Z,0.40
2022-12-28T05:03:15.140Z,0.40
2022-12-28T05:05:42.571Z,0.43
2022-12-28T05:08:10.000Z,0.50
2022-12-28T05:10:37.425Z,0.40
2022-12-28T05:13:06.246Z,0.40
2022-12-28T05:15:33.709Z,0.40
2022-12-28T05:18:01.207Z,0.40
2022-12-28T05:20:28.644Z,0.43
2022-12-28T05:22:56.059Z,0.40
2022-12-28T05:25:23.525Z,0.40
2022-12-28T05:27:50.967Z,0.50
2022-12-28T05:30:19.753Z,0.40
2022-12-28T05:32:47.179Z,0.40
2022-12-28T05:35:14.717Z,0.70
2022-12-28T05:37:42.265Z,0.57
2022-12-28T05:40:10.202Z,0.50
2022-12-28T05:42:37.628Z,0.50
2022-12-28T05:45:05.470Z,0.40
2022-12-28T05:47:34.266Z,0.40
2022-12-28T05:50:02.936Z,0.40
2022-12-28T05:52:32.537Z,0.50
2022-12-28T05:55:00.131Z,0.40
2022-12-28T05:57:27.551Z,0.40
2022-12-28T05:59:54.991Z,0.40
2022-12-28T06:02:25.437Z,0.40
2022-12-28T06:04:54.537Z,0.40
2022-12-28T06:07:22.088Z,0.40
2022-12-28T06:09:49.517Z,0.40
2022-12-28T06:12:17.791Z,0.40
2022-12-28T06:14:45.285Z,0.50
2022-12-28T06:17:12.720Z,0.50
2022-12-28T06:19:40.167Z,0.33
2022-12-28T06:22:08.936Z,0.40
2022-12-28T06:24:36.381Z,0.40
2022-12-28T06:27:03.811Z,0.40
2022-12-28T06:29:31.276Z,0.40
2022-12-28T06:32:00.262Z,0.40
2022-12-28T06:34:28.392Z,0.40
2022-12-28T06:36:56.714Z,0.40
2022-12-28T06:39:25.501Z,0.50
2022-12-28T06:41:52.914Z,0.30
2022-12-28T06:44:20.334Z,0.50
2022-12-28T06:46:47.744Z,0.40
2022-12-28T06:49:15.213Z,0.40
2022-12-28T06:51:42.713Z,0.45
2022-12-28T06:54:10.562Z,0.50
2022-12-28T06:56:39.411Z,0.50
2022-12-28T06:59:07.110Z,0.40
2022-12-28T07:01:35.628Z,0.40
2022-12-28T07:04:04.039Z,0.43
2022-12-28T07:06:34.931Z,0.40
2022-12-28T07:09:02.960Z,0.30
2022-12-28T07:11:30.744Z,0.50
2022-12-28T07:13:59.537Z,0.40
2022-12-28T07:18:55.840Z,0.40
2022-12-28T07:21:24.215Z,0.40
2022-12-28T07:23:52.690Z,0.40
2022-12-28T07:26:21.360Z,0.40
2022-12-28T07:28:49.563Z,0.40
2022-12-28T07:31:19.211Z,0.50
2022-12-28T07:33:47.259Z,0.50
2022-12-28T07:36:16.240Z,0.40
2022-12-28T07:38:43.839Z,0.40
2022-12-28T07:41:12.096Z,0.40
2022-12-28T07:43:39.728Z,0.40
2022-12-28T07:46:07.939Z,0.50
2022-12-28T07:48:37.402Z,0.40
2022-12-28T07:51:08.448Z,0.40
2022-12-28T07:53:35.914Z,0.40
2022-12-28T07:56:03.632Z,0.40
2022-12-28T07:58:31.262Z,0.40
2022-12-28T08:01:04.316Z,0.40
2022-12-28T08:03:31.851Z,0.40
2022-12-28T08:06:05.018Z,0.30
2022-12-28T08:08:32.515Z,0.40
2022-12-28T08:11:02.637Z,0.50
2022-12-28T08:13:30.965Z,0.35
2022-12-28T08:15:58.412Z,0.40
2022-12-28T08:18:25.972Z,0.40
2022-12-28T08:20:53.411Z,0.30
2022-12-28T08:23:22.225Z,0.30
2022-12-28T08:25:49.648Z,0.40
2022-12-28T08:28:17.075Z,0.40
2022-12-28T08:30:44.561Z,0.40
2022-12-28T08:33:12.064Z,0.30
2022-12-28T08:35:39.998Z,0.30
2022-12-28T08:38:07.446Z,0.40
2022-12-28T08:40:36.209Z,0.40
2022-12-28T08:43:03.669Z,0.40
2022-12-28T08:45:31.161Z,0.30
2022-12-28T08:47:58.863Z,0.30
2022-12-28T08:50:31.445Z,0.40
2022-12-28T08:52:59.313Z,0.40
2022-12-28T08:55:26.732Z,0.32
2022-12-28T08:57:55.493Z,0.40
2022-12-28T09:00:23.058Z,0.30
2022-12-28T09:02:50.645Z,0.30
2022-12-28T09:05:18.439Z,0.40
2022-12-28T09:07:45.853Z,0.50
2022-12-28T09:10:13.365Z,0.40
2022-12-28T09:12:40.989Z,0.40
2022-12-28T09:15:10.461Z,0.40
2022-12-28T09:17:37.888Z,0.30
2022-12-28T09:20:05.761Z,0.30
2022-12-28T09:22:33.260Z,0.30
2022-12-28T09:25:00.949Z,0.40
2022-12-28T09:27:28.378Z,0.30
2022-12-28T09:29:55.858Z,0.38
2022-12-28T09:32:24.638Z,0.30
2022-12-28T09:34:52.405Z,0.32
2022-12-28T09:37:19.822Z,0.40
2022-12-28T09:39:47.505Z,0.30
2022-12-28T09:42:17.417Z,0.32
2022-12-28T09:44:50.221Z,0.30
2022-12-28T09:47:23.206Z,0.30
2022-12-28T09:49:58.671Z,0.40
2022-12-28T09:52:28.089Z,0.30
2022-12-28T09:54:56.166Z,0.40
2022-12-28T09:57:25.302Z,0.30
2022-12-28T09:59:53.210Z,0.30
2022-12-28T10:02:22.808Z,0.40
2022-12-28T10:04:51.293Z,0.40
2022-12-28T10:07:20.083Z,0.30
2022-12-28T10:09:48.616Z,0.40
2022-12-28T10:12:17.436Z,0.40
2022-12-28T10:14:46.373Z,0.30
2022-12-28T10:17:14.508Z,0.30
2022-12-28T10:19:42.455Z,0.40
2022-12-28T10:22:12.583Z,0.30
2022-12-28T10:24:42.114Z,0.50
2022-12-28T10:27:13.386Z,0.32
2022-12-28T10:29:42.528Z,0.40
2022-12-28T10:32:12.446Z,0.30
2022-12-28T10:34:53.985Z,0.40
2022-12-28T10:37:22.270Z,0.30
2022-12-28T10:39:52.703Z,0.40
2022-12-28T10:42:22.001Z,0.35
2022-12-28T10:44:50.626Z,0.30
2022-12-28T10:47:19.382Z,0.50
2022-12-28T10:50:02.688Z,0.30
2022-12-28T10:52:37.350Z,0.40
2022-12-28T10:55:26.639Z,0.40
2022-12-28T10:58:28.589Z,0.30
2022-12-28T11:00:53.561Z,0.50
2022-12-28T11:03:24.657Z,0.38
2022-12-28T11:06:07.891Z,0.35
2022-12-28T11:08:36.023Z,0.30
2022-12-28T11:11:04.883Z,0.30
2022-12-28T11:13:32.541Z,0.30
2022-12-28T11:16:00.244Z,0.40
2022-12-28T11:18:31.970Z,0.40
2022-12-28T11:21:02.417Z,0.40
2022-12-28T11:23:31.768Z,0.30
2022-12-28T11:25:59.728Z,0.40
2022-12-28T11:28:28.502Z,0.30
2022-12-28T11:30:57.154Z,0.40
2022-12-28T11:33:26.530Z,0.35
2022-12-28T11:35:59.096Z,0.30
2022-12-28T11:38:40.635Z,0.50
2022-12-28T11:41:10.530Z,0.30
2022-12-28T11:43:55.558Z,0.30
2022-12-28T11:46:43.000Z,0.47
2022-12-28T11:49:27.183Z,0.50
2022-12-28T11:52:20.571Z,0.30
2022-12-28T11:54:51.871Z,0.40
2022-12-28T11:57:33.881Z,0.40
2022-12-28T12:00:21.862Z,0.40
2022-12-28T12:02:52.553Z,0.30
2022-12-28T12:05:38.729Z,0.40
2022-12-28T12:08:27.503Z,0.30
2022-12-28T12:11:09.953Z,0.38
2022-12-28T12:13:43.556Z,0.35
2022-12-28T12:16:19.686Z,0.30
2022-12-28T12:18:48.220Z,0.40
2022-12-28T12:21:22.852Z,0.30
2022-12-28T12:23:51.720Z,0.30
2022-12-28T12:26:22.041Z,0.40
2022-12-28T12:28:51.817Z,0.32
2022-12-28T12:31:23.992Z,0.38
2022-12-28T12:33:52.351Z,0.40
2022-12-28T12:36:27.079Z,0.30
2022-12-28T12:39:04.320Z,0.40
2022-12-28T12:41:36.450Z,0.40
2022-12-28T12:44:12.996Z,0.35
2022-12-28T12:47:05.939Z,0.40
2022-12-28T12:49:45.322Z,0.32
2022-12-28T12:52:20.461Z,0.40
2022-12-28T12:54:54.675Z,0.40
2022-12-28T12:57:24.253Z,0.40
2022-12-28T13:00:02.740Z,0.30
2022-12-28T13:02:39.088Z,0.30
2022-12-28T13:05:07.086Z,0.45
2022-12-28T13:07:34.805Z,0.30
2022-12-28T13:10:04.298Z,0.40
2022-12-28T13:12:31.783Z,0.40
2022-12-28T13:15:04.919Z,0.30
2022-12-28T13:17:36.473Z,0.30
2022-12-28T13:20:08.797Z,0.30
2022-12-28T13:22:36.341Z,0.30
2022-12-28T13:25:03.781Z,0.35
2022-12-28T13:27:34.199Z,0.40
2022-12-28T13:30:03.060Z,0.40
2022-12-28T13:32:36.154Z,0.40
2022-12-28T13:35:16.977Z,0.40
2022-12-28T13:37:44.394Z,0.40
2022-12-28T13:40:12.223Z,0.30
2022-12-28T13:42:43.635Z,0.43
2022-12-28T13:45:15.643Z,0.45
2022-12-28T13:47:47.159Z,0.50
2022-12-28T13:50:16.263Z,0.40
2022-12-28T13:52:45.989Z,0.30
2022-12-28T13:55:15.344Z,0.30
2022-12-28T13:57:47.505Z,0.40
2022-12-28T14:00:19.452Z,0.30
2022-12-28T14:02:47.659Z,0.30
2022-12-28T14:05:19.485Z,0.35
2022-12-28T14:07:47.626Z,0.30
2022-12-28T14:10:15.618Z,0.40
2022-12-28T14:12:43.589Z,0.40
2022-12-28T14:15:12.045Z,0.40
2022-12-28T14:17:41.166Z,0.30
2022-12-28T14:20:09.620Z,0.30
2022-12-28T14:22:38.409Z,0.45
2022-12-28T14:25:07.509Z,0.43
2022-12-28T14:27:36.805Z,0.40
2022-12-28T14:30:05.382Z,0.32
2022-12-28T14:32:38.986Z,0.30
2022-12-28T14:35:16.783Z,0.30
2022-12-28T14:37:46.445Z,0.40
2022-12-28T14:40:19.046Z,0.30
2022-12-28T14:42:49.819Z,0.38
2022-12-28T14:45:24.671Z,0.40
2022-12-28T14:47:55.393Z,0.32
2022-12-28T14:50:25.866Z,0.40
2022-12-28T14:53:02.415Z,0.30
2022-12-28T14:55:32.192Z,0.40
2022-12-28T14:58:01.547Z,0.40
2022-12-28T15:00:30.133Z,0.43
2022-12-28T15:02:58.244Z,0.40
2022-12-28T15:05:37.618Z,0.30
2022-12-28T15:08:05.337Z,0.40
2022-12-28T15:10:34.203Z,0.35
2022-12-28T15:13:01.625Z,0.40
2022-12-28T15:15:29.127Z,0.40
2022-12-28T15:17:56.600Z,0.40
2022-12-28T15:20:24.234Z,0.30
2022-12-28T15:22:53.038Z,0.40
2022-12-28T15:25:20.445Z,0.40
2022-12-28T15:27:49.955Z,0.38
2022-12-28T15:30:20.555Z,0.40
2022-12-28T15:32:50.454Z,0.40
2022-12-28T15:35:17.872Z,0.40
2022-12-28T15:37:45.332Z,0.38
2022-12-28T15:40:14.286Z,0.40
2022-12-28T15:42:44.222Z,0.40
2022-12-28T15:45:11.882Z,0.40
2022-12-28T15:47:39.331Z,0.50
2022-12-28T15:50:07.400Z,0.50
2022-12-28T15:52:34.843Z,0.40
2022-12-28T15:55:02.399Z,0.43
2022-12-28T15:57:31.320Z,0.30
2022-12-28T15:59:58.760Z,0.30
2022-12-28T16:02:26.588Z,0.30
2022-12-28T16:04:54.252Z,0.40
2022-12-28T16:07:21.711Z,0.30
2022-12-28T16:09:49.172Z,0.50
2022-12-28T16:12:17.645Z,0.30
2022-12-28T16:14:47.629Z,0.40
2022-12-28T16:17:15.433Z,0.38
2022-12-28T16:19:42.966Z,0.43
2022-12-28T16:22:10.537Z,0.30
2022-12-28T16:24:38.071Z,0.40
2022-12-28T16:27:05.872Z,0.40
2022-12-28T16:29:33.308Z,0.30
2022-12-28T16:32:02.342Z,0.40
2022-12-28T16:34:31.523Z,0.30
2022-12-28T16:36:59.622Z,0.30
2022-12-28T16:39:28.601Z,0.30
2022-12-28T16:41:56.460Z,0.30
2022-12-28T16:44:24.680Z,0.40
2022-12-28T16:46:53.938Z,0.30
2022-12-28T16:49:22.732Z,0.30
2022-12-28T16:51:50.238Z,0.32
2022-12-28T16:54:18.514Z,0.40
2022-12-28T16:56:46.146Z,0.30
2022-12-28T16:59:14.942Z,0.32
2022-12-28T17:01:43.558Z,0.30
2022-12-28T17:04:11.717Z,0.40
2022-12-28T17:06:40.582Z,0.40
2022-12-28T17:09:08.560Z,0.40
2022-12-28T17:11:36.284Z,0.30
2022-12-28T17:14:04.628Z,0.40
2022-12-28T17:16:32.568Z,0.40
2022-12-28T17:19:00.262Z,0.30
2022-12-28T17:21:27.851Z,0.45
2022-12-28T17:23:56.670Z,0.50
2022-12-28T17:26:24.149Z,0.30
2022-12-28T17:28:51.722Z,0.40
2022-12-28T17:31:20.029Z,0.30
2022-12-28T17:33:48.016Z,0.40
2022-12-28T17:36:15.641Z,0.30
2022-12-28T17:38:43.281Z,0.40
2022-12-28T17:41:16.885Z,0.50
2022-12-28T17:43:46.261Z,0.40
2022-12-28T17:46:13.781Z,0.40
2022-12-28T17:48:41.341Z,0.40
2022-12-28T17:51:11.327Z,0.40
2022-12-28T17:53:39.401Z,0.40
2022-12-28T17:56:07.915Z,0.30
2022-12-28T17:58:36.724Z,0.40
2022-12-28T18:01:04.270Z,0.40
2022-12-28T18:03:34.193Z,0.43
2022-12-28T18:06:02.378Z,0.40
2022-12-28T18:08:30.147Z,0.45
2022-12-28T18:10:57.736Z,0.40
2022-12-28T18:13:25.300Z,0.38
2022-12-28T18:15:54.537Z,0.40
2022-12-28T18:18:21.967Z,0.40
2022-12-28T18:20:56.157Z,0.30
2022-12-28T18:23:23.592Z,0.40
2022-12-28T18:25:51.031Z,0.40
2022-12-28T18:28:18.467Z,0.40
2022-12-28T18:30:45.992Z,0.45
2022-12-28T18:33:14.796Z,0.40
2022-12-28T18:35:42.373Z,0.30
2022-12-28T18:38:09.873Z,0.40
2022-12-28T18:40:37.735Z,0.40
2022-12-28T18:43:05.289Z,0.40
2022-12-28T18:45:32.948Z,0.50
2022-12-28T18:48:00.790Z,0.40
2022-12-28T18:50:29.587Z,0.40
2022-12-28T18:52:57.009Z,0.40
2022-12-28T18:55:24.436Z,0.40
2022-12-28T18:57:51.881Z,0.40
2022-12-28T19:00:19.564Z,0.30
2022-12-28T19:02:51.301Z,0.40
2022-12-28T19:05:18.896Z,0.40
2022-12-28T19:07:49.593Z,0.40
2022-12-28T19:10:17.493Z,0.40
2022-12-28T19:12:45.071Z,0.30
2022-12-28T19:15:12.682Z,0.30
2022-12-28T19:17:40.514Z,0.30
2022-12-28T19:20:09.087Z,0.40
2022-12-28T19:22:36.522Z,0.40
2022-12-28T19:25:05.728Z,0.30
2022-12-28T19:27:33.166Z,0.40
2022-12-28T19:30:00.599Z,0.30
2022-12-28T19:32:28.022Z,0.40
2022-12-28T19:34:55.491Z,0.30
2022-12-28T19:37:22.908Z,0.40
2022-12-28T19:39:54.792Z,0.30
2022-12-28T19:42:26.531Z,0.60
2022-12-28T19:44:54.014Z,0.30
2022-12-28T19:47:21.460Z,0.35
2022-12-28T19:49:48.890Z,0.43
2022-12-28T19:52:16.311Z,0.40
2022-12-28T19:54:45.065Z,0.40
2022-12-28T19:57:12.489Z,0.43
2022-12-28T19:59:41.270Z,0.40
2022-12-28T20:02:08.756Z,0.30
2022-12-28T20:04:36.232Z,0.40
2022-12-28T20:07:03.699Z,0.40
2022-12-28T20:09:31.193Z,0.40
2022-12-28T20:11:58.660Z,0.40
2022-12-28T20:14:26.103Z,0.30
2022-12-28T20:16:54.930Z,0.30
2022-12-28T20:19:22.364Z,0.40
2022-12-28T20:21:50.295Z,0.40
2022-12-28T20:24:19.889Z,0.40
2022-12-28T20:26:47.315Z,0.40
2022-12-28T20:29:16.234Z,0.40
2022-12-28T20:31:43.787Z,0.40
2022-12-28T20:34:12.563Z,0.40
2022-12-28T20:36:40.013Z,0.40
2022-12-28T20:39:07.415Z,0.38
2022-12-28T20:42:17.918Z,0.40
2022-12-28T20:44:45.475Z,0.30
2022-12-28T20:47:12.990Z,0.30
2022-12-28T20:49:41.985Z,0.40
2022-12-28T20:52:09.449Z,0.40
2022-12-28T20:54:36.877Z,0.38
2022-12-28T20:57:04.385Z,0.40
2022-12-28T20:59:31.907Z,0.30
2022-12-28T21:01:59.440Z,0.43
2022-12-28T21:04:27.014Z,0.35
2022-12-28T21:06:56.168Z,0.30
2022-12-28T21:09:23.635Z,0.40
2022-12-28T21:11:51.063Z,0.35
2022-12-28T21:14:18.573Z,0.40
2022-12-28T21:16:46.082Z,0.40
2022-12-28T21:19:13.671Z,0.40
2022-12-28T21:21:41.474Z,0.45
2022-12-28T21:24:10.323Z,0.40
2022-12-28T21:26:38.051Z,0.40
2022-12-28T21:29:05.466Z,0.40
2022-12-28T21:31:32.941Z,0.40
2022-12-28T21:34:00.449Z,0.40
2022-12-28T21:36:27.956Z,0.40
2022-12-28T21:38:55.457Z,0.40
2022-12-28T21:41:38.192Z,0.40
2022-12-28T21:44:06.134Z,0.40
2022-12-28T21:46:34.688Z,0.40
2022-12-28T21:49:03.397Z,0.40
2022-12-28T21:51:35.467Z,0.40
2022-12-28T21:54:04.909Z,0.40
2022-12-28T21:56:34.285Z,0.30
2022-12-28T21:59:01.732Z,0.50
2022-12-28T22:01:47.245Z,0.47
2022-12-28T22:04:33.485Z,0.50
2022-12-28T22:07:00.981Z,0.40
2022-12-28T22:09:46.125Z,0.40
2022-12-28T22:12:33.059Z,0.38
2022-12-28T22:15:14.823Z,0.40
2022-12-28T22:17:42.306Z,0.40
2022-12-28T22:20:10.635Z,0.35
2022-12-28T22:22:38.100Z,0.40
2022-12-28T22:25:05.837Z,0.40
2022-12-28T22:27:34.625Z,0.40
2022-12-28T22:30:02.096Z,0.40
2022-12-28T22:32:29.542Z,0.40
2022-12-28T22:34:57.052Z,0.50
2022-12-28T22:37:24.557Z,0.40
2022-12-28T22:39:51.992Z,0.50
2022-12-28T22:42:19.448Z,0.50
2022-12-28T22:44:48.244Z,0.50
2022-12-28T22:47:15.638Z,0.40
2022-12-28T22:49:43.049Z,0.50
2022-12-28T22:52:10.669Z,0.30
2022-12-28T22:54:38.134Z,0.40
2022-12-28T22:57:07.008Z,0.35
2022-12-28T22:59:34.544Z,0.40
2022-12-28T23:02:03.535Z,0.40
2022-12-28T23:04:31.307Z,0.40
2022-12-28T23:07:03.650Z,0.30
2022-12-28T23:09:31.847Z,0.40
2022-12-28T23:11:59.316Z,0.30
2022-12-28T23:14:45.005Z,0.30
2022-12-28T23:17:18.516Z,0.30
2022-12-28T23:20:04.293Z,0.40
2022-12-28T23:22:50.040Z,0.30
2022-12-28T23:25:36.198Z,0.40
2022-12-28T23:28:05.045Z,0.40
2022-12-28T23:30:32.631Z,0.40
2022-12-28T23:33:01.419Z,0.40
2022-12-28T23:35:28.932Z,0.30
2022-12-28T23:37:56.349Z,0.40
2022-12-28T23:40:24.087Z,0.30
2022-12-28T23:42:53.935Z,0.30
2022-12-28T23:45:21.701Z,0.45
2022-12-28T23:47:49.633Z,0.30
2022-12-28T23:50:18.984Z,0.40
2022-12-28T23:52:46.504Z,0.40
2022-12-28T23:55:13.946Z,0.30
2022-12-28T23:57:41.411Z,0.30
